Time;durP1;ratioP1;P1;durP2;ratioP2;P2;SDS_P1;SDS_P2;PMS_P1;PMS_P2;Temp;Humidity;BMP_temperature;BMP_pressure;BME280_temperature;BME280_humidity;BME280_pressure;Samples;Min_cycle;Max_cycle;Signal;HPM_P1;HPM_P2
2021/09/06 00:01:09;;;;;;;6.25;3.72;;;;;;;17.76;57.99;97873.13;5063464;28;20021;-52
2021/09/06 00:03:34;;;;;;;6.93;4.30;;;;;;;17.76;58.23;97871.19;5063658;28;20040;-56
2021/09/06 00:05:59;;;;;;;6.85;4.20;;;;;;;17.83;57.77;97870.84;5077898;28;20024;-58
2021/09/06 00:08:26;;;;;;;7.95;3.92;;;;;;;17.85;57.67;97865.91;5075064;28;20043;-55
2021/09/06 00:11:05;;;;;;;6.07;3.90;;;;;;;17.86;57.83;97861.25;5078394;28;20462;-57
2021/09/06 00:13:31;;;;;;;8.10;4.60;;;;;;;17.86;57.91;97855.75;5083073;28;20031;-54
2021/09/06 00:15:57;;;;;;;6.32;3.63;;;;;;;17.87;58.15;97858.22;5084002;28;20099;-55
2021/09/06 00:18:22;;;;;;;7.70;4.03;;;;;;;17.91;58.00;97858.47;5084069;28;20149;-54
2021/09/06 00:20:48;;;;;;;6.43;4.03;;;;;;;17.99;57.66;97866.03;5066476;28;20027;-57
2021/09/06 00:23:13;;;;;;;8.07;4.40;;;;;;;18.05;57.58;97856.69;5071548;28;20663;-53
2021/09/06 00:25:40;;;;;;;7.35;4.28;;;;;;;18.04;57.39;97860.53;5086779;28;20036;-51
2021/09/06 00:28:05;;;;;;;6.88;3.83;;;;;;;18.04;57.80;97860.53;5087485;28;20031;-53
2021/09/06 00:30:31;;;;;;;6.70;4.10;;;;;;;18.03;57.49;97864.34;5085072;28;20085;-54
2021/09/06 00:32:56;;;;;;;6.63;4.10;;;;;;;17.99;57.39;97863.31;5082965;28;20024;-55
2021/09/06 00:35:21;;;;;;;6.85;4.15;;;;;;;17.87;57.73;97862.91;5086767;28;20024;-55
2021/09/06 00:37:47;;;;;;;5.82;4.22;;;;;;;17.82;57.81;97858.28;5080121;28;20020;-54
2021/09/06 00:40:13;;;;;;;6.10;4.20;;;;;;;17.89;57.65;97864.25;5087365;28;20023;-56
2021/09/06 00:42:39;;;;;;;6.70;4.05;;;;;;;17.81;57.77;97862.13;5072815;28;20052;-58
2021/09/06 00:45:05;;;;;;;7.45;4.28;;;;;;;17.71;58.05;97863.03;5084291;28;20104;-56
2021/09/06 00:47:33;;;;;;;7.55;4.05;;;;;;;17.67;57.96;97865.53;5086349;28;20079;-58
2021/09/06 00:49:58;;;;;;;6.97;4.57;;;;;;;17.62;58.03;97859.28;5083110;28;20081;-55
2021/09/06 00:52:24;;;;;;;7.88;4.40;;;;;;;17.57;58.26;97862.06;5086315;28;20453;-56
2021/09/06 00:54:49;;;;;;;6.97;4.10;;;;;;;17.49;58.18;97858.00;5086712;28;20034;-57
2021/09/06 00:57:14;;;;;;;7.10;4.15;;;;;;;17.42;58.40;97864.63;5072712;28;20434;-56
2021/09/06 00:59:40;;;;;;;6.85;4.55;;;;;;;17.46;58.37;97859.38;5066161;28;20442;-54
2021/09/06 01:02:05;;;;;;;9.82;4.38;;;;;;;17.55;58.24;97865.06;5084336;28;20047;-55
2021/09/06 01:04:31;;;;;;;6.53;3.85;;;;;;;17.61;57.99;97857.63;5079414;28;20032;-54
2021/09/06 01:06:56;;;;;;;7.07;4.05;;;;;;;17.66;57.81;97858.38;5067285;28;20107;-55
2021/09/06 01:09:21;;;;;;;5.72;3.90;;;;;;;17.72;57.99;97866.59;5085616;28;20150;-58
2021/09/06 01:11:47;;;;;;;6.32;4.18;;;;;;;17.69;57.84;97862.47;5085224;28;20062;-56
2021/09/06 01:14:12;;;;;;;6.47;4.03;;;;;;;17.78;57.85;97865.44;5076327;28;20024;-56
2021/09/06 01:16:37;;;;;;;6.35;4.15;;;;;;;17.78;57.72;97871.72;5066845;28;20026;-52
2021/09/06 01:19:03;;;;;;;6.22;3.90;;;;;;;17.84;57.55;97863.47;5065952;28;20031;-55
2021/09/06 01:21:28;;;;;;;5.97;3.80;;;;;;;17.81;57.77;97867.59;5087536;28;20019;-54
2021/09/06 01:23:53;;;;;;;7.07;4.25;;;;;;;17.68;58.04;97869.88;5095936;28;20081;-55
2021/09/06 01:26:19;;;;;;;7.57;4.53;;;;;;;17.53;58.06;97868.09;5066388;28;20025;-56
2021/09/06 01:28:44;;;;;;;6.07;4.13;;;;;;;17.48;58.32;97875.53;5068941;28;20099;-58
2021/09/06 01:31:10;;;;;;;7.63;4.10;;;;;;;17.39;58.40;97872.56;5073308;28;20059;-52
2021/09/06 01:33:35;;;;;;;6.10;3.97;;;;;;;17.33;58.48;97876.44;5065464;28;20077;-56
2021/09/06 01:36:00;;;;;;;5.72;3.92;;;;;;;17.34;58.47;97870.69;5064219;28;20028;-57
2021/09/06 01:38:26;;;;;;;7.63;4.03;;;;;;;17.22;58.61;97878.44;5087456;28;20033;-54
2021/09/06 01:40:51;;;;;;;7.78;4.40;;;;;;;17.24;58.61;97874.31;5103319;27;20055;-56
2021/09/06 01:43:16;;;;;;;6.82;4.10;;;;;;;17.32;58.23;97872.88;5066281;28;20035;-57
2021/09/06 01:45:42;;;;;;;7.88;4.50;;;;;;;17.40;58.18;97877.75;5066832;28;20439;-53
2021/09/06 01:48:07;;;;;;;8.05;4.45;;;;;;;17.33;58.43;97876.44;5065142;28;20089;-54
2021/09/06 01:50:32;;;;;;;6.18;4.20;;;;;;;17.31;58.45;97873.19;5065779;28;20020;-58
2021/09/06 01:52:58;;;;;;;5.85;3.97;;;;;;;17.25;58.82;97880.63;5065098;28;20032;-55
2021/09/06 01:55:23;;;;;;;6.72;4.35;;;;;;;17.19;58.75;97871.63;5065454;28;20021;-58
2021/09/06 01:57:48;;;;;;;7.00;4.30;;;;;;;17.10;58.91;97882.31;5065418;28;20031;-57
2021/09/06 02:00:14;;;;;;;7.97;4.32;;;;;;;16.96;59.20;97879.38;5065245;28;20036;-52
2021/09/06 02:02:40;;;;;;;7.70;4.70;;;;;;;16.96;59.23;97878.56;5064706;28;20035;-55
2021/09/06 02:05:06;;;;;;;6.28;4.13;;;;;;;17.03;59.06;97879.88;5064732;28;20032;-57
2021/09/06 02:07:32;;;;;;;6.75;3.75;;;;;;;17.12;58.99;97890.25;5073445;28;20053;-54
2021/09/06 02:09:57;;;;;;;9.02;5.53;;;;;;;17.17;58.88;97882.00;5085868;28;20028;-58
2021/09/06 02:12:22;;;;;;;9.18;4.40;;;;;;;17.18;58.75;97882.84;5085595;28;20119;-54
2021/09/06 02:14:48;;;;;;;6.40;4.25;;;;;;;17.26;58.51;97887.72;5082501;28;20480;-55
2021/09/06 02:17:13;;;;;;;6.68;3.90;;;;;;;17.20;58.67;97888.84;5064946;28;20861;-58
2021/09/06 02:19:39;;;;;;;7.75;4.63;;;;;;;17.25;58.62;97888.81;5065171;28;20415;-56
2021/09/06 02:22:05;;;;;;;6.45;4.20;;;;;;;17.34;58.27;97889.03;5065131;28;20032;-54
2021/09/06 02:24:30;;;;;;;6.57;3.70;;;;;;;17.41;58.02;97884.06;5080023;28;20031;-53
2021/09/06 02:26:55;;;;;;;5.65;4.03;;;;;;;17.37;58.23;97885.72;5084418;28;20379;-58
2021/09/06 02:29:21;;;;;;;6.07;3.65;;;;;;;17.40;58.37;97879.69;5078642;28;20016;-52
2021/09/06 02:31:46;;;;;;;6.90;4.18;;;;;;;17.42;58.25;97889.25;5064768;28;20029;-54
2021/09/06 02:34:12;;;;;;;8.13;4.07;;;;;;;17.37;58.41;97891.19;5064439;28;20070;-56
2021/09/06 02:36:37;;;;;;;8.48;4.47;;;;;;;17.37;58.32;97883.00;5064677;28;20062;-53
2021/09/06 02:39:04;;;;;;;7.50;3.92;;;;;;;17.38;58.31;97896.41;5096410;28;20450;-55
2021/09/06 02:41:29;;;;;;;6.70;4.32;;;;;;;17.45;58.16;97890.59;5091506;27;20103;-52
2021/09/06 02:43:55;;;;;;;6.20;4.20;;;;;;;17.40;58.20;97891.44;5084709;28;20178;-53
2021/09/06 02:46:20;;;;;;;8.15;5.18;;;;;;;17.46;58.19;97889.50;5070283;28;20031;-57
2021/09/06 02:48:45;;;;;;;5.80;3.80;;;;;;;17.31;58.36;97890.41;5064851;28;20059;-55
2021/09/06 02:51:11;;;;;;;6.47;4.05;;;;;;;17.18;58.66;97891.03;5064196;28;20111;-57
2021/09/06 02:53:36;;;;;;;6.03;3.83;;;;;;;17.05;58.94;97893.31;5063455;28;20104;-58
2021/09/06 02:56:02;;;;;;;7.38;4.10;;;;;;;17.00;58.99;97891.38;5063861;28;20175;-54
2021/09/06 02:58:27;;;;;;;7.28;4.35;;;;;;;16.98;59.06;97890.00;5063118;28;20052;-51
2021/09/06 03:00:53;;;;;;;9.20;4.60;;;;;;;16.92;58.95;97889.25;5064535;28;20044;-57
2021/09/06 03:03:18;;;;;;;7.15;4.60;;;;;;;16.87;59.00;97892.81;5064435;28;20046;-54
2021/09/06 03:05:43;;;;;;;6.65;4.70;;;;;;;16.86;59.26;97898.56;5064387;28;20024;-51
2021/09/06 03:08:09;;;;;;;6.72;5.00;;;;;;;16.74;59.21;97886.00;5077534;28;20049;-57
2021/09/06 03:10:34;;;;;;;6.03;4.47;;;;;;;16.75;59.29;97895.88;5072268;28;20063;-54
2021/09/06 03:13:00;;;;;;;6.60;4.15;;;;;;;16.72;59.33;97901.91;5064753;28;20107;-52
2021/09/06 03:15:25;;;;;;;6.60;3.92;;;;;;;16.75;59.27;97895.06;5065296;28;20028;-56
2021/09/06 03:17:50;;;;;;;7.03;4.50;;;;;;;16.63;59.57;97889.91;5063911;28;20025;-55
2021/09/06 03:20:15;;;;;;;7.55;4.68;;;;;;;16.54;59.64;97888.84;5074845;28;20154;-53
2021/09/06 03:22:41;;;;;;;6.57;4.82;;;;;;;16.42;59.82;97881.78;5082959;28;20039;-55
2021/09/06 03:25:07;;;;;;;7.22;4.22;;;;;;;16.43;59.82;97882.59;5084442;28;20117;-54
2021/09/06 03:27:32;;;;;;;7.97;4.93;;;;;;;16.41;59.71;97882.88;5067170;28;20119;-53
2021/09/06 03:29:57;;;;;;;8.18;4.55;;;;;;;16.37;59.90;97881.78;5064311;28;20017;-56
2021/09/06 03:32:23;;;;;;;8.63;4.28;;;;;;;16.46;59.91;97884.75;5063978;28;20518;-55
2021/09/06 03:34:48;;;;;;;8.02;4.18;;;;;;;16.58;59.55;97888.00;5063082;28;20029;-51
2021/09/06 03:37:14;;;;;;;7.05;4.28;;;;;;;16.76;59.22;97883.00;5064993;28;20139;-59
2021/09/06 03:39:39;;;;;;;7.00;4.82;;;;;;;16.85;58.88;97889.53;5098021;28;20023;-53
2021/09/06 03:42:04;;;;;;;7.55;4.70;;;;;;;16.92;58.67;97885.69;5095320;28;20024;-54
2021/09/06 03:44:30;;;;;;;6.90;4.10;;;;;;;16.97;58.57;97886.47;5103582;28;20047;-55
2021/09/06 03:46:55;;;;;;;7.88;4.20;;;;;;;16.85;58.74;97883.25;5077899;28;20893;-53
2021/09/06 03:49:20;;;;;;;6.72;4.70;;;;;;;16.74;58.98;97883.28;5079509;28;20011;-56
2021/09/06 03:51:46;;;;;;;6.75;3.90;;;;;;;16.63;59.34;97885.25;5098442;28;20036;-58
2021/09/06 03:54:12;;;;;;;8.82;4.80;;;;;;;16.52;59.36;97887.19;5067858;28;20501;-57
2021/09/06 03:56:37;;;;;;;6.57;3.88;;;;;;;16.44;59.60;97881.50;5067808;28;20029;-57
2021/09/06 03:59:03;;;;;;;7.05;4.43;;;;;;;16.40;59.68;97878.47;5067138;28;20054;-55
2021/09/06 04:01:28;;;;;;;7.72;4.70;;;;;;;16.41;59.54;97880.16;5067752;28;20027;-58
2021/09/06 04:03:53;;;;;;;7.03;4.03;;;;;;;16.35;59.66;97881.22;5067246;28;20021;-58
2021/09/06 04:06:19;;;;;;;8.38;4.55;;;;;;;16.30;59.64;97878.53;5066473;28;20103;-55
2021/09/06 04:08:44;;;;;;;6.45;4.00;;;;;;;16.21;59.91;97879.09;5085489;28;20433;-59
2021/09/06 04:11:10;;;;;;;7.13;4.07;;;;;;;16.29;59.77;97876.91;5071601;28;20028;-57
2021/09/06 04:13:35;;;;;;;9.13;4.53;;;;;;;16.54;59.50;97883.38;5067972;28;20028;-55
2021/09/06 04:16:00;;;;;;;10.13;4.22;;;;;;;16.76;58.66;97885.75;5067645;28;20085;-57
2021/09/06 04:18:26;;;;;;;8.48;4.30;;;;;;;16.94;58.11;97887.03;5065629;28;20036;-57
2021/09/06 04:20:52;;;;;;;6.40;4.07;;;;;;;17.12;57.60;97893.81;5066246;28;20016;-55
2021/09/06 04:23:18;;;;;;;7.32;4.07;;;;;;;17.23;57.35;97894.56;5071901;28;20035;-54
2021/09/06 04:25:43;;;;;;;6.63;4.05;;;;;;;17.28;56.98;97896.44;5087609;28;20024;-57
2021/09/06 04:28:09;;;;;;;8.52;4.30;;;;;;;17.26;56.58;97888.53;5086702;28;20031;-57
2021/09/06 04:30:34;;;;;;;6.63;4.32;;;;;;;17.25;56.30;97894.28;5069185;28;20020;-55
2021/09/06 04:32:59;;;;;;;8.65;4.15;;;;;;;17.31;56.48;97900.56;5065004;28;20020;-55
2021/09/06 04:35:25;;;;;;;8.15;4.32;;;;;;;17.35;56.23;97896.13;5065513;28;20063;-55
2021/09/06 04:37:50;;;;;;;8.32;4.10;;;;;;;17.36;56.09;97904.06;5076659;28;20039;-56
2021/09/06 04:40:16;;;;;;;7.70;4.00;;;;;;;17.33;56.03;97903.81;5090335;28;20094;-57
2021/09/06 04:42:41;;;;;;;8.82;4.20;;;;;;;17.35;56.05;97907.91;5095049;28;20061;-55
2021/09/06 04:45:07;;;;;;;7.97;4.10;;;;;;;17.39;55.96;97916.34;5080798;28;20023;-55
2021/09/06 04:47:33;;;;;;;6.60;4.60;;;;;;;17.41;55.88;97916.91;5074301;28;20028;-56
2021/09/06 04:49:58;;;;;;;9.15;4.40;;;;;;;17.37;55.52;97921.31;5081779;28;20468;-56
2021/09/06 04:52:23;;;;;;;7.25;4.50;;;;;;;17.36;55.35;97914.22;5077779;28;20119;-54
2021/09/06 04:54:49;;;;;;;7.15;4.05;;;;;;;17.34;55.39;97919.97;5071972;28;20036;-54
2021/09/06 04:57:14;;;;;;;8.23;4.25;;;;;;;17.35;55.25;97923.50;5085174;28;20671;-57
2021/09/06 04:59:40;;;;;;;7.20;4.20;;;;;;;17.33;55.24;97925.72;5084938;28;20064;-53
2021/09/06 05:02:05;;;;;;;6.55;4.28;;;;;;;17.33;55.50;97920.25;5084520;28;20058;-52
2021/09/06 05:04:30;;;;;;;7.25;3.97;;;;;;;17.36;55.39;97927.88;5067583;28;20056;-56
2021/09/06 05:06:56;;;;;;;6.68;4.47;;;;;;;17.40;55.33;97937.19;5074601;28;20035;-54
2021/09/06 05:09:21;;;;;;;6.72;3.80;;;;;;;17.39;54.92;97941.81;5084755;28;20136;-54
2021/09/06 05:11:46;;;;;;;9.93;4.13;;;;;;;17.39;55.07;97938.25;5084568;28;20548;-56
2021/09/06 05:14:12;;;;;;;8.25;3.92;;;;;;;17.43;54.84;97944.78;5083849;28;20059;-54
2021/09/06 05:16:37;;;;;;;8.07;4.60;;;;;;;17.45;55.01;97941.78;5078241;28;20345;-57
2021/09/06 05:19:03;;;;;;;8.00;4.22;;;;;;;17.34;55.36;97950.06;5078697;28;20052;-65
2021/09/06 05:21:28;;;;;;;7.80;4.30;;;;;;;16.81;56.49;97947.81;5083016;28;20015;-57
2021/09/06 05:23:53;;;;;;;7.68;5.15;;;;;;;16.41;57.68;97945.72;5093151;28;20019;-59
2021/09/06 05:26:19;;;;;;;8.18;4.75;;;;;;;16.27;58.13;97942.75;5076609;28;20031;-60
2021/09/06 05:28:44;;;;;;;7.03;4.10;;;;;;;16.40;58.04;97944.06;5081817;28;20357;-57
2021/09/06 05:31:10;;;;;;;6.65;4.43;;;;;;;16.49;57.87;97947.91;5095888;28;20047;-59
2021/09/06 05:33:36;;;;;;;7.38;4.47;;;;;;;16.54;57.89;97949.78;5081699;28;20062;-57
2021/09/06 05:36:01;;;;;;;7.45;4.05;;;;;;;16.54;57.87;97949.00;5082550;28;20028;-60
2021/09/06 05:38:27;;;;;;;7.00;4.55;;;;;;;16.62;57.63;97953.91;5083937;28;20028;-60
2021/09/06 05:40:52;;;;;;;7.40;4.20;;;;;;;16.67;57.51;97962.06;5069043;28;20670;-59
2021/09/06 05:43:17;;;;;;;10.27;5.32;;;;;;;16.62;57.88;97960.16;5082435;28;20103;-58
2021/09/06 05:45:43;;;;;;;8.13;4.70;;;;;;;16.52;58.46;97965.66;5084887;28;20054;-57
2021/09/06 05:48:08;;;;;;;8.77;4.80;;;;;;;16.44;58.59;97964.28;5082766;28;20073;-59
2021/09/06 05:50:34;;;;;;;6.18;4.10;;;;;;;16.43;58.78;97970.84;5071052;28;20038;-60
2021/09/06 05:52:59;;;;;;;7.63;4.65;;;;;;;16.45;58.77;97971.41;5083006;28;20505;-59
2021/09/06 05:55:24;;;;;;;6.85;4.55;;;;;;;16.52;58.48;97969.19;5077572;28;20024;-57
2021/09/06 05:57:50;;;;;;;6.88;4.20;;;;;;;16.61;58.50;97966.72;5077445;28;20031;-59
2021/09/06 06:00:16;;;;;;;8.48;4.28;;;;;;;16.69;58.28;97965.34;5083751;28;20105;-59
2021/09/06 06:02:41;;;;;;;6.97;4.30;;;;;;;16.73;58.34;97969.16;5075438;28;20024;-57
2021/09/06 06:05:07;;;;;;;7.15;4.50;;;;;;;16.79;58.36;97972.69;5082616;28;20113;-58
2021/09/06 06:07:32;;;;;;;6.35;4.82;;;;;;;16.62;59.01;97964.81;5079046;28;20057;-59
2021/09/06 06:09:58;;;;;;;8.45;4.88;;;;;;;16.57;59.40;97973.00;5076061;28;20166;-59
2021/09/06 06:12:27;;;;;;;9.35;5.03;;;;;;;16.61;59.29;97974.94;5077393;28;20043;-59
2021/09/06 06:14:53;;;;;;;8.40;4.82;;;;;;;16.63;59.44;97978.19;5082764;28;20016;-59
2021/09/06 06:17:19;;;;;;;8.25;4.68;;;;;;;16.64;59.80;97982.59;5085516;28;20043;-58
2021/09/06 06:19:45;;;;;;;8.18;5.38;;;;;;;16.76;59.45;97984.19;5070101;28;20017;-59
2021/09/06 06:22:11;;;;;;;7.72;4.53;;;;;;;16.91;59.19;97986.06;5064721;28;20407;-59
2021/09/06 06:24:36;;;;;;;7.22;4.57;;;;;;;16.99;58.84;97988.22;5081276;28;20044;-60
2021/09/06 06:27:02;;;;;;;7.50;4.43;;;;;;;17.06;58.82;97987.94;5085125;28;20092;-57
2021/09/06 06:29:27;;;;;;;9.05;5.38;;;;;;;17.13;58.94;97990.38;5080873;28;20028;-59
2021/09/06 06:31:52;;;;;;;8.52;4.88;;;;;;;17.14;58.87;97992.84;5084366;28;20099;-60
2021/09/06 06:34:18;;;;;;;7.00;4.45;;;;;;;17.14;59.48;97990.09;5084725;28;20026;-59
2021/09/06 06:36:43;;;;;;;6.50;4.30;;;;;;;17.20;59.35;97996.38;5085138;28;20119;-59
2021/09/06 06:39:08;;;;;;;8.00;4.93;;;;;;;17.23;59.44;98005.94;5090080;28;20046;-57
2021/09/06 06:41:34;;;;;;;8.15;4.47;;;;;;;17.30;59.14;98006.47;5096438;28;20020;-59
2021/09/06 06:44:01;;;;;;;8.40;4.40;;;;;;;17.35;58.96;98006.44;5082371;28;20024;-59
2021/09/06 06:46:26;;;;;;;7.78;4.97;;;;;;;17.41;58.94;98002.59;5079976;28;20070;-59
2021/09/06 06:48:51;;;;;;;7.30;4.68;;;;;;;17.47;58.97;98006.09;5084693;28;20107;-58
2021/09/06 06:51:17;;;;;;;7.18;4.78;;;;;;;17.52;58.99;97997.88;5083746;28;20035;-59
2021/09/06 06:53:42;;;;;;;8.30;5.03;;;;;;;17.54;59.21;97994.84;5083300;28;20029;-58
2021/09/06 06:56:08;;;;;;;7.18;4.40;;;;;;;17.58;58.87;97993.16;5084668;28;20570;-59
2021/09/06 06:58:33;;;;;;;7.03;4.78;;;;;;;17.64;59.11;97991.22;5078417;28;20642;-56
2021/09/06 07:00:58;;;;;;;7.78;4.72;;;;;;;17.64;59.12;97996.69;5084714;28;20069;-59
2021/09/06 07:03:24;;;;;;;8.23;5.40;;;;;;;17.65;59.14;97996.41;5084596;28;20030;-58
2021/09/06 07:05:49;;;;;;;7.63;4.32;;;;;;;17.68;59.19;98001.34;5084712;28;20024;-59
2021/09/06 07:08:14;;;;;;;8.65;4.95;;;;;;;17.74;59.38;97996.66;5084749;28;20036;-56
2021/09/06 07:10:40;;;;;;;9.48;4.75;;;;;;;17.78;58.92;97992.25;5082644;28;20017;-59
2021/09/06 07:13:05;;;;;;;9.52;5.15;;;;;;;17.80;59.16;97998.25;5088804;28;20545;-59
2021/09/06 07:15:33;;;;;;;6.90;4.28;;;;;;;17.86;58.82;97996.28;5097273;28;20080;-60
2021/09/06 07:17:59;;;;;;;7.57;4.85;;;;;;;17.88;58.62;97999.53;5083753;28;20028;-59
2021/09/06 07:20:26;;;;;;;6.47;3.95;;;;;;;17.91;58.76;98001.72;5083864;28;20023;-59
2021/09/06 07:22:51;;;;;;;6.88;4.20;;;;;;;17.98;58.20;98004.13;5084210;28;20401;-58
2021/09/06 07:25:17;;;;;;;7.55;4.13;;;;;;;17.97;58.78;98005.25;5085370;28;20502;-59
2021/09/06 07:27:42;;;;;;;7.07;4.18;;;;;;;18.02;58.30;98007.16;5105393;28;20031;-59
2021/09/06 07:30:08;;;;;;;6.43;4.05;;;;;;;18.09;58.04;98007.66;5108599;28;20486;-58
2021/09/06 07:32:33;;;;;;;6.30;4.05;;;;;;;18.13;57.98;98007.91;5108764;28;20059;-58
2021/09/06 07:34:58;;;;;;;7.07;4.40;;;;;;;18.17;57.66;98015.25;5096040;28;20535;-59
2021/09/06 07:37:24;;;;;;;6.70;4.32;;;;;;;18.19;57.99;98002.09;5086737;28;20046;-57
2021/09/06 07:39:49;;;;;;;7.57;4.05;;;;;;;18.22;57.96;98005.34;5085620;28;20137;-59
2021/09/06 07:42:15;;;;;;;7.07;4.68;;;;;;;18.26;57.28;98012.75;5086145;28;20074;-59
2021/09/06 07:44:40;;;;;;;7.22;3.97;;;;;;;18.27;57.95;98014.38;5087010;28;20579;-60
2021/09/06 07:47:05;;;;;;;6.95;4.35;;;;;;;18.30;56.82;98021.19;5079271;28;20027;-60
2021/09/06 07:49:31;;;;;;;8.30;4.43;;;;;;;18.32;57.37;98022.53;5089428;28;20054;-60
2021/09/06 07:51:56;;;;;;;8.27;4.93;;;;;;;18.33;56.75;98026.13;5108908;28;20137;-60
2021/09/06 07:54:23;;;;;;;6.30;4.40;;;;;;;18.33;56.98;98026.91;5108632;28;20055;-60
2021/09/06 07:56:50;;;;;;;6.13;3.80;;;;;;;18.36;56.94;98030.19;5109050;28;20426;-59
2021/09/06 07:59:16;;;;;;;6.40;3.97;;;;;;;18.37;56.90;98037.31;5108438;28;20030;-59
2021/09/06 08:01:42;;;;;;;6.65;4.18;;;;;;;18.37;56.67;98037.31;5108051;27;20067;-59
2021/09/06 08:04:07;;;;;;;6.60;3.85;;;;;;;18.40;56.68;98040.31;5084831;28;20107;-60
2021/09/06 08:06:33;;;;;;;7.28;3.88;;;;;;;18.43;56.69;98039.72;5079521;28;20402;-58
2021/09/06 08:08:59;;;;;;;6.47;3.78;;;;;;;18.43;56.73;98044.41;5086416;28;20517;-59
2021/09/06 08:11:24;;;;;;;6.38;3.88;;;;;;;18.42;56.80;98043.56;5084899;28;20039;-60
2021/09/06 08:13:50;;;;;;;5.65;3.92;;;;;;;18.43;56.56;98041.66;5086337;28;20028;-60
2021/09/06 08:16:15;;;;;;;6.97;3.80;;;;;;;18.43;56.59;98050.69;5074526;28;20136;-60
2021/09/06 08:18:40;;;;;;;6.13;4.20;;;;;;;18.45;56.37;98050.41;5085826;28;20058;-60
2021/09/06 08:21:06;;;;;;;5.97;3.90;;;;;;;18.45;56.54;98058.63;5083247;28;20035;-58
2021/09/06 08:23:32;;;;;;;6.07;3.80;;;;;;;18.46;56.42;98058.34;5084498;28;20098;-57
2021/09/06 08:25:57;;;;;;;6.47;3.95;;;;;;;18.46;56.50;98055.59;5085914;28;20031;-58
2021/09/06 08:28:23;;;;;;;8.98;3.92;;;;;;;18.46;56.50;98061.09;5085538;28;20030;-58
2021/09/06 08:30:48;;;;;;;6.38;3.58;;;;;;;18.50;56.47;98063.25;5085417;28;20024;-57
2021/09/06 08:33:14;;;;;;;7.88;4.05;;;;;;;18.50;56.46;98061.31;5084038;28;20028;-59
2021/09/06 08:35:39;;;;;;;6.18;3.95;;;;;;;18.50;56.29;98064.06;5085420;28;20035;-58
2021/09/06 08:38:04;;;;;;;6.78;4.22;;;;;;;18.50;56.68;98061.31;5084876;28;20119;-56
2021/09/06 08:40:30;;;;;;;5.63;3.58;;;;;;;18.53;56.44;98060.75;5077934;28;20040;-58
2021/09/06 08:42:57;;;;;;;6.60;4.00;;;;;;;18.53;56.49;98062.66;5089017;28;20030;-58
2021/09/06 08:45:24;;;;;;;5.75;3.80;;;;;;;18.57;56.24;98061.81;5083298;28;20043;-57
2021/09/06 08:47:51;;;;;;;6.40;3.90;;;;;;;18.57;56.19;98074.69;5085840;28;20028;-57
2021/09/06 08:50:16;;;;;;;6.68;4.05;;;;;;;18.54;56.34;98059.63;5083161;28;20699;-57
2021/09/06 08:52:42;;;;;;;8.30;4.53;;;;;;;18.57;56.24;98081.00;5084366;28;20062;-58
2021/09/06 08:55:08;;;;;;;6.47;4.25;;;;;;;18.56;56.28;98064.84;5086560;28;20038;-57
2021/09/06 08:57:34;;;;;;;6.25;3.80;;;;;;;18.56;56.24;98065.66;5087117;28;20028;-57
2021/09/06 09:00:04;;;;;;;8.93;4.47;;;;;;;18.59;56.05;98070.59;5086730;28;20020;-58
2021/09/06 09:02:33;;;;;;;6.25;4.15;;;;;;;18.59;56.05;98077.97;5087170;28;20043;-58
2021/09/06 09:05:09;;;;;;;6.53;4.30;;;;;;;18.57;56.34;98070.03;5086958;28;20399;-57
2021/09/06 09:07:36;;;;;;;7.68;4.70;;;;;;;18.60;56.16;98071.38;5083998;28;20505;-58
2021/09/06 09:10:03;;;;;;;8.48;4.43;;;;;;;18.65;56.13;98067.78;5084587;28;20063;-57
2021/09/06 09:12:29;;;;;;;10.55;4.43;;;;;;;18.66;55.92;98078.47;5084925;28;20089;-58
2021/09/06 09:14:59;;;;;;;8.23;4.53;;;;;;;18.67;55.82;98080.09;5084891;28;20028;-57
2021/09/06 09:17:25;;;;;;;7.43;4.22;;;;;;;18.69;55.98;98077.09;5084212;28;20028;-59
2021/09/06 09:19:51;;;;;;;6.40;4.32;;;;;;;18.76;55.89;98080.28;5084717;28;20035;-57
2021/09/06 09:22:31;;;;;;;6.75;4.13;;;;;;;18.82;55.80;98083.81;5083447;28;20020;-56
2021/09/06 09:24:57;;;;;;;7.05;4.75;;;;;;;18.84;56.04;98087.09;5085522;28;20048;-58
2021/09/06 09:27:49;;;;;;;8.13;4.70;;;;;;;18.84;55.99;98084.34;5093895;28;20104;-57
2021/09/06 09:30:27;;;;;;;8.07;4.57;;;;;;;18.88;55.97;98081.84;5080992;28;20040;-56
2021/09/06 09:33:09;;;;;;;11.23;4.88;;;;;;;18.89;55.84;98088.94;5084983;28;20028;-57
2021/09/06 09:35:35;;;;;;;9.32;4.75;;;;;;;18.89;55.97;98078.81;5078260;28;20623;-57
2021/09/06 09:38:03;;;;;;;8.77;4.90;;;;;;;18.92;56.00;98080.97;5081374;28;20032;-57
2021/09/06 09:40:33;;;;;;;8.95;5.10;;;;;;;18.91;55.85;98078.53;5084244;28;20026;-56
2021/09/06 09:42:59;;;;;;;9.48;4.78;;;;;;;18.95;55.44;98077.63;5082582;28;20430;-58
2021/09/06 09:45:25;;;;;;;10.70;5.35;;;;;;;19.04;55.09;98082.50;5077155;28;20028;-57
2021/09/06 09:47:55;;;;;;;6.93;4.32;;;;;;;18.98;55.33;98081.72;5081885;28;20495;-60
2021/09/06 09:50:22;;;;;;;9.98;5.53;;;;;;;19.02;54.96;98077.28;5070021;28;20104;-57
2021/09/06 09:52:49;;;;;;;8.80;4.85;;;;;;;19.04;54.83;98079.75;5078167;28;20040;-61
2021/09/06 09:55:15;;;;;;;7.95;4.50;;;;;;;18.97;55.06;98080.91;5072951;28;20073;-58
2021/09/06 09:57:41;;;;;;;8.38;4.90;;;;;;;18.96;55.40;98089.44;5078289;28;20024;-59
2021/09/06 10:00:06;;;;;;;7.72;4.97;;;;;;;18.94;55.31;98081.50;5063900;28;20028;-59
2021/09/06 10:02:33;;;;;;;8.00;5.57;;;;;;;18.91;55.44;98084.81;5082161;28;20059;-58
2021/09/06 10:05:06;;;;;;;7.47;5.00;;;;;;;18.89;55.73;98084.28;5082222;28;20031;-60
2021/09/06 10:07:34;;;;;;;7.88;4.95;;;;;;;18.90;55.58;98074.94;5078862;28;20100;-57
2021/09/06 10:10:20;;;;;;;10.25;5.28;;;;;;;19.00;55.14;98074.03;5071441;28;20545;-54
2021/09/06 10:13:08;;;;;;;8.85;5.43;;;;;;;19.04;54.52;98068.78;5083574;28;20795;-57
2021/09/06 10:15:34;;;;;;;9.63;5.38;;;;;;;19.02;54.80;98071.81;5078172;28;20047;-59
2021/09/06 10:18:01;;;;;;;9.30;5.53;;;;;;;18.98;54.73;98066.09;5078920;28;20023;-56
2021/09/06 10:20:27;;;;;;;7.63;5.20;;;;;;;18.98;54.91;98062.50;5077977;28;20089;-54
2021/09/06 10:23:06;;;;;;;7.93;5.07;;;;;;;19.01;54.82;98061.94;5064050;28;20036;-60
2021/09/06 10:25:36;;;;;;;8.18;5.05;;;;;;;19.05;54.65;98054.78;5083243;28;20435;-60
2021/09/06 10:28:06;;;;;;;9.07;5.00;;;;;;;19.04;54.61;98053.13;5069187;28;20087;-59
2021/09/06 10:30:41;;;;;;;7.50;4.72;;;;;;;19.10;54.31;98053.94;5081338;28;20027;-61
2021/09/06 10:33:21;;;;;;;8.25;5.03;;;;;;;19.13;54.08;98055.28;5083478;28;20031;-60
2021/09/06 10:35:46;;;;;;;8.25;5.13;;;;;;;19.12;53.73;98054.44;5083667;28;20372;-58
2021/09/06 10:38:13;;;;;;;8.45;5.10;;;;;;;19.11;53.87;98058.31;5082688;28;20491;-58
2021/09/06 10:40:41;;;;;;;9.77;5.97;;;;;;;19.13;53.64;98060.75;5074445;28;20086;-58
2021/09/06 10:43:18;;;;;;;8.63;5.18;;;;;;;19.10;53.60;98048.44;5084967;28;20084;-57
2021/09/06 10:45:48;;;;;;;8.75;5.55;;;;;;;19.14;53.03;98048.66;5070615;28;20490;-58
2021/09/06 10:48:24;;;;;;;10.20;5.10;;;;;;;19.15;52.89;98044.81;5069761;28;20019;-57
2021/09/06 10:50:49;;;;;;;7.38;5.07;;;;;;;19.16;52.71;98032.75;5082418;28;20272;-58
2021/09/06 10:53:20;;;;;;;8.38;4.80;;;;;;;19.20;52.46;98042.03;5081901;28;20074;-58
2021/09/06 10:55:50;;;;;;;8.20;5.00;;;;;;;19.15;52.34;98048.38;5068983;28;20055;-58
2021/09/06 10:58:16;;;;;;;8.05;4.65;;;;;;;19.09;52.73;98038.59;5083094;28;20066;-57
2021/09/06 11:00:48;;;;;;;8.65;5.43;;;;;;;19.08;53.00;98037.75;5069013;28;20487;-57
2021/09/06 11:03:13;;;;;;;9.73;5.55;;;;;;;19.07;53.53;98038.88;5083177;28;20131;-58
2021/09/06 11:05:39;;;;;;;8.25;5.10;;;;;;;19.13;53.46;98038.81;5069634;28;20123;-59
2021/09/06 11:08:06;;;;;;;8.23;5.13;;;;;;;19.13;53.10;98031.41;5081127;28;20024;-58
2021/09/06 11:10:32;;;;;;;9.68;5.65;;;;;;;19.18;52.72;98046.97;5076198;28;20140;-58
2021/09/06 11:13:00;;;;;;;8.45;5.60;;;;;;;19.16;53.04;98047.25;5062848;28;20099;-58
2021/09/06 11:15:27;;;;;;;7.22;4.53;;;;;;;19.24;51.64;98041.13;5069204;28;20020;-58
2021/09/06 11:17:57;;;;;;;6.82;5.00;;;;;;;19.19;52.70;98038.44;5083041;28;20027;-58
2021/09/06 11:20:23;;;;;;;7.82;5.13;;;;;;;19.18;52.73;98036.00;5069827;28;20024;-57
2021/09/06 11:22:48;;;;;;;7.95;4.97;;;;;;;19.23;52.32;98035.94;5082615;28;20031;-57
2021/09/06 11:25:22;;;;;;;7.53;4.63;;;;;;;19.24;52.22;98035.63;5061071;28;20032;-58
2021/09/06 11:27:50;;;;;;;6.63;4.55;;;;;;;19.26;51.62;98037.25;5063517;28;20476;-56
2021/09/06 11:30:20;;;;;;;6.93;4.72;;;;;;;19.29;51.41;98036.69;5082527;28;20032;-57